Stoystown, Pennsylvania
Current Conditions -  °F | °C
As of 6:54 PM on Sunday 23 Nov 2014 (Local Time) from KJST Reporting Station
Clear Clear  
Wind Chill: 41°   Ceiling: Unl
Heat Index: 47°   Visibility: 10mi
Dew Point: 31°   Wind: 14mph
Humidity: 54%   Direction: 160°SSE
Pressure: 29.87"   Gusts: NA
Location:  40.1°N, 78.95°W
Report Text: KJST 232354Z AUTO 16012KT 10SM CLR 08/M01 A2987 RMK AO2 SLP122 T00831006 10150 20083 56021
Loading
Personal Weather Stations






























Interactive Weather Map New forecast layout! Learn more

10-Day Weather Forecast

Advertisements
Track Severe Weather on mobile